createdAt,value
2022-08-05T00:00:08.064Z,1007.80
2022-08-05T00:01:20.940Z,1007.86
2022-08-05T00:02:11.613Z,1007.89
2022-08-05T00:03:07.960Z,1007.95
2022-08-05T00:04:08.326Z,1007.95
2022-08-05T00:05:07.897Z,1007.99
2022-08-05T00:06:29.320Z,1007.97
2022-08-05T00:07:27.029Z,1007.95
2022-08-05T00:08:19.864Z,1007.94
2022-08-05T00:09:12.663Z,1007.97
2022-08-05T00:10:07.703Z,1008.01
2022-08-05T00:11:20.795Z,1008.04
2022-08-05T00:12:07.661Z,1008.04
2022-08-05T00:13:07.596Z,1008.04
2022-08-05T00:14:13.006Z,1008.02
2022-08-05T00:15:56.201Z,1008.03
2022-08-05T00:16:08.564Z,1008.02
2022-08-05T00:17:18.726Z,1008.02
2022-08-05T00:18:07.412Z,1008.04
2022-08-05T00:19:07.374Z,1008.03
2022-08-05T00:20:07.344Z,1008.00
2022-08-05T00:21:08.342Z,1008.03
2022-08-05T00:22:07.274Z,1008.03
2022-08-05T00:23:12.456Z,1008.04
2022-08-05T00:24:10.386Z,1008.05
2022-08-05T00:25:08.373Z,1008.09
2022-08-05T00:26:07.119Z,1008.06
2022-08-05T00:27:10.399Z,1008.08
2022-08-05T00:28:07.045Z,1008.08
2022-08-05T00:29:07.028Z,1008.06
2022-08-05T00:30:11.605Z,1008.09
2022-08-05T00:31:07.428Z,1008.13
2022-08-05T00:32:12.742Z,1008.15
2022-08-05T00:33:06.864Z,1008.15
2022-08-05T00:34:54.216Z,1008.17
2022-08-05T00:35:07.599Z,1008.18
2022-08-05T00:36:16.322Z,1008.17
2022-08-05T00:37:12.338Z,1008.18
2022-08-05T00:38:06.694Z,1008.16
2022-08-05T00:39:06.696Z,1008.14
2022-08-05T00:40:09.487Z,1008.14
2022-08-05T00:41:06.576Z,1008.12
2022-08-05T00:42:06.535Z,1008.10
2022-08-05T00:43:07.355Z,1008.03
2022-08-05T00:44:06.477Z,1008.02
2022-08-05T00:45:08.567Z,1007.99
2022-08-05T00:46:06.391Z,1008.01
2022-08-05T00:47:06.355Z,1008.06
2022-08-05T00:48:06.523Z,1008.07
2022-08-05T00:49:06.281Z,1008.05
2022-08-05T00:50:06.256Z,1008.02
2022-08-05T00:51:08.913Z,1008.02
2022-08-05T00:52:06.173Z,1008.04
2022-08-05T00:53:09.830Z,1008.01
2022-08-05T00:54:06.099Z,1008.03
2022-08-05T00:55:06.063Z,1008.01
2022-08-05T00:56:08.019Z,1007.97
2022-08-05T00:57:05.992Z,1008.00
2022-08-05T00:58:05.951Z,1008.03
2022-08-05T00:59:06.984Z,1008.05
2022-08-05T01:00:05.901Z,1008.13
2022-08-05T01:01:08.545Z,1008.10
2022-08-05T01:02:05.807Z,1008.17
2022-08-05T01:03:08.002Z,1008.20
2022-08-05T01:04:14.239Z,1008.20
2022-08-05T01:05:10.004Z,1008.25
2022-08-05T01:06:05.717Z,1008.24
2022-08-05T01:07:05.624Z,1008.24
2022-08-05T01:08:31.622Z,1008.23
2022-08-05T01:09:05.552Z,1008.25
2022-08-05T01:10:05.511Z,1008.27
2022-08-05T01:11:05.481Z,1008.25
2022-08-05T01:12:05.464Z,1008.26
2022-08-05T01:13:13.013Z,1008.21
2022-08-05T01:14:08.748Z,1008.24
2022-08-05T01:15:05.390Z,1008.20
2022-08-05T01:16:05.291Z,1008.20
2022-08-05T01:17:05.443Z,1008.17
2022-08-05T01:18:05.235Z,1008.19
2022-08-05T01:19:05.185Z,1008.19
2022-08-05T01:20:05.147Z,1008.21
2022-08-05T01:21:05.118Z,1008.23
2022-08-05T01:22:05.072Z,1008.22
2022-08-05T01:23:05.915Z,1008.24
2022-08-05T01:24:13.437Z,1008.30
2022-08-05T01:25:04.970Z,1008.28
2022-08-05T01:26:04.925Z,1008.29
2022-08-05T01:27:17.614Z,1008.32
2022-08-05T01:28:04.857Z,1008.32
2022-08-05T01:29:05.324Z,1008.29
2022-08-05T01:30:04.779Z,1008.29
2022-08-05T01:31:04.753Z,1008.29
2022-08-05T01:32:04.709Z,1008.31
2022-08-05T01:33:04.674Z,1008.33
2022-08-05T01:34:04.631Z,1008.29
2022-08-05T01:35:10.425Z,1008.30
2022-08-05T01:36:04.565Z,1008.28
2022-08-05T01:37:04.552Z,1008.26
2022-08-05T01:38:04.486Z,1008.26
2022-08-05T01:39:04.470Z,1008.28
2022-08-05T01:40:04.479Z,1008.32
2022-08-05T01:41:04.387Z,1008.35
2022-08-05T01:42:04.347Z,1008.37
2022-08-05T01:43:04.303Z,1008.42
2022-08-05T01:44:04.265Z,1008.42
2022-08-05T01:45:04.233Z,1008.44
2022-08-05T01:46:07.533Z,1008.48
2022-08-05T01:47:05.210Z,1008.45
2022-08-05T01:48:04.120Z,1008.49
2022-08-05T01:49:22.681Z,1008.52
2022-08-05T01:50:04.045Z,1008.52
2022-08-05T01:51:12.281Z,1008.52
2022-08-05T01:52:12.397Z,1008.51
2022-08-05T01:53:03.962Z,1008.50
2022-08-05T01:54:03.897Z,1008.53
2022-08-05T01:55:04.399Z,1008.55
2022-08-05T01:56:04.480Z,1008.63
2022-08-05T01:58:09.943Z,1008.70
2022-08-05T01:58:29.495Z,1008.78
2022-08-05T01:59:03.717Z,1008.89
2022-08-05T02:00:03.682Z,1008.92
2022-08-05T02:01:03.646Z,1009.04
2022-08-05T02:02:03.682Z,1009.04
2022-08-05T02:03:03.853Z,1009.15
2022-08-05T02:04:03.609Z,1009.23
2022-08-05T02:05:03.497Z,1009.29
2022-08-05T02:06:24.012Z,1009.37
2022-08-05T02:07:03.577Z,1009.44
2022-08-05T02:08:03.387Z,1009.47
2022-08-05T02:09:03.364Z,1009.48
2022-08-05T02:10:03.312Z,1009.50
2022-08-05T02:11:03.277Z,1009.50
2022-08-05T02:12:03.239Z,1009.51
2022-08-05T02:13:04.793Z,1009.47
2022-08-05T02:14:03.167Z,1009.46
2022-08-05T02:15:03.314Z,1009.46
2022-08-05T02:16:03.093Z,1009.44
2022-08-05T02:17:03.059Z,1009.43
2022-08-05T02:18:28.062Z,1009.40
2022-08-05T02:19:07.093Z,1009.36
2022-08-05T02:20:02.957Z,1009.33
2022-08-05T02:21:02.911Z,1009.32
2022-08-05T02:22:02.874Z,1009.29
2022-08-05T02:23:02.837Z,1009.21
2022-08-05T02:24:02.801Z,1009.18
2022-08-05T02:25:02.766Z,1009.15
2022-08-05T02:26:02.740Z,1009.10
2022-08-05T02:27:10.214Z,1009.09
2022-08-05T02:28:08.592Z,1009.06
2022-08-05T02:29:21.479Z,1009.11
2022-08-05T02:30:02.581Z,1009.16
2022-08-05T02:31:02.546Z,1009.18
2022-08-05T02:32:04.594Z,1009.31
2022-08-05T02:33:02.476Z,1009.33
2022-08-05T02:34:02.441Z,1009.40
2022-08-05T02:35:13.464Z,1009.41
2022-08-05T02:36:02.360Z,1009.40
2022-08-05T02:37:02.327Z,1009.42
2022-08-05T02:38:02.601Z,1009.40
2022-08-05T02:39:02.306Z,1009.42
2022-08-05T02:40:02.227Z,1009.42
2022-08-05T02:41:14.604Z,1009.46
2022-08-05T02:42:02.144Z,1009.47
2022-08-05T02:43:02.105Z,1009.49
2022-08-05T02:44:11.196Z,1009.54
2022-08-05T02:45:02.030Z,1009.51
2022-08-05T02:46:02.008Z,1009.52
2022-08-05T02:47:01.959Z,1009.57
2022-08-05T02:48:09.917Z,1009.59
2022-08-05T02:49:01.884Z,1009.63
2022-08-05T02:50:01.846Z,1009.63
2022-08-05T02:51:01.812Z,1009.65
2022-08-05T02:52:04.478Z,1009.65
2022-08-05T02:53:01.737Z,1009.71
2022-08-05T02:54:04.199Z,1009.74
2022-08-05T02:55:05.067Z,1009.78
2022-08-05T02:56:02.082Z,1009.82
2022-08-05T02:57:01.593Z,1009.81
2022-08-05T02:58:09.384Z,1009.79
2022-08-05T02:59:01.517Z,1009.77
2022-08-05T03:00:01.609Z,1009.70
2022-08-05T03:01:02.051Z,1009.60
2022-08-05T03:02:01.454Z,1009.57
2022-08-05T03:03:01.373Z,1009.50
2022-08-05T03:04:04.298Z,1009.44
2022-08-05T03:05:01.297Z,1009.35
2022-08-05T03:06:56.159Z,1009.23
2022-08-05T03:07:01.224Z,1009.04
2022-08-05T03:08:08.583Z,1008.84
2022-08-05T03:09:01.160Z,1008.65
2022-08-05T03:10:01.113Z,1008.52
2022-08-05T03:11:56.205Z,1008.25
2022-08-05T03:12:01.915Z,1007.96
2022-08-05T03:13:21.998Z,1007.78
2022-08-05T03:14:02.734Z,1007.84
2022-08-05T03:15:00.938Z,1007.92
2022-08-05T03:16:00.892Z,1008.05
2022-08-05T03:17:00.886Z,1008.02
2022-08-05T03:18:00.818Z,1008.00
2022-08-05T03:19:00.784Z,1007.96
2022-08-05T03:20:00.744Z,1007.88
2022-08-05T03:21:00.720Z,1007.73
2022-08-05T03:22:00.670Z,1007.72
2022-08-05T03:23:00.631Z,1007.65
2022-08-05T03:24:00.596Z,1007.65
2022-08-05T03:25:11.522Z,1007.75
2022-08-05T03:26:04.308Z,1007.86
2022-08-05T03:27:00.502Z,1007.98
2022-08-05T03:28:00.732Z,1008.11
2022-08-05T03:29:00.413Z,1008.17
2022-08-05T03:30:08.132Z,1008.23
2022-08-05T03:31:00.336Z,1008.30
2022-08-05T03:32:00.546Z,1008.33
2022-08-05T03:33:00.274Z,1008.37
2022-08-05T03:34:00.228Z,1008.36
2022-08-05T03:35:00.722Z,1008.37
2022-08-05T03:36:00.150Z,1008.39
2022-08-05T03:37:00.113Z,1008.40
2022-08-05T03:38:00.105Z,1008.46
2022-08-05T03:39:00.085Z,1008.57
2022-08-05T03:40:01.699Z,1008.62
2022-08-05T03:40:59.973Z,1008.70
2022-08-05T03:41:59.926Z,1008.77
2022-08-05T03:43:01.348Z,1008.81
2022-08-05T03:44:11.530Z,1008.83
2022-08-05T03:45:01.562Z,1008.80
2022-08-05T03:45:59.778Z,1008.78
2022-08-05T03:46:59.742Z,1008.81
2022-08-05T03:47:59.705Z,1008.85
2022-08-05T03:48:59.667Z,1008.92
2022-08-05T03:49:59.642Z,1009.03
2022-08-05T03:50:59.593Z,1009.09
2022-08-05T03:52:38.330Z,1009.13
2022-08-05T03:55:50.066Z,1009.20
2022-08-05T03:55:53.008Z,1009.16
2022-08-05T03:56:04.906Z,1009.19
2022-08-05T03:56:12.053Z,1009.15
2022-08-05T03:57:00.110Z,1009.19
2022-08-05T03:57:59.333Z,1009.16
2022-08-05T03:58:59.298Z,1009.15
2022-08-05T03:59:59.262Z,1009.11
2022-08-05T04:00:59.986Z,1009.09
2022-08-05T04:01:59.373Z,1009.12
2022-08-05T04:02:59.349Z,1009.11
2022-08-05T04:04:09.653Z,1009.10
2022-08-05T04:04:59.075Z,1009.08
2022-08-05T04:05:59.320Z,1009.09
2022-08-05T04:06:59.008Z,1009.07
2022-08-05T04:07:59.115Z,1009.07
2022-08-05T04:08:58.929Z,1009.04
2022-08-05T04:09:58.890Z,1009.02
2022-08-05T04:10:58.854Z,1008.96
2022-08-05T04:11:58.815Z,1008.91
2022-08-05T04:12:59.248Z,1008.92
2022-08-05T04:13:58.753Z,1008.92
2022-08-05T04:14:58.705Z,1008.84
2022-08-05T04:16:04.481Z,1008.76
2022-08-05T04:16:58.653Z,1008.72
2022-08-05T04:18:00.045Z,1008.66
2022-08-05T04:18:58.572Z,1008.61
2022-08-05T04:19:58.809Z,1008.54
2022-08-05T04:20:58.485Z,1008.53
2022-08-05T04:22:10.039Z,1008.52
2022-08-05T04:22:58.410Z,1008.54
2022-08-05T04:24:06.615Z,1008.53
2022-08-05T04:24:58.348Z,1008.50
2022-08-05T04:26:00.833Z,1008.49
2022-08-05T04:26:58.347Z,1008.46
2022-08-05T04:28:00.655Z,1008.45
2022-08-05T04:28:58.191Z,1008.43
2022-08-05T04:29:58.150Z,1008.38
2022-08-05T04:30:58.124Z,1008.39
2022-08-05T04:31:58.079Z,1008.31
2022-08-05T04:32:58.044Z,1008.31
2022-08-05T04:34:31.306Z,1008.28
2022-08-05T04:34:57.983Z,1008.35
2022-08-05T04:36:16.050Z,1008.46
2022-08-05T04:36:57.902Z,1008.53
2022-08-05T04:38:00.909Z,1008.72
2022-08-05T04:38:57.887Z,1008.83
2022-08-05T04:39:57.784Z,1008.86
2022-08-05T04:40:57.757Z,1008.95
2022-08-05T04:41:57.713Z,1008.95
2022-08-05T04:42:57.675Z,1008.88
2022-08-05T04:43:57.638Z,1008.77
2022-08-05T04:44:57.601Z,1008.70
2022-08-05T04:45:57.562Z,1008.68
2022-08-05T04:46:57.538Z,1008.75
2022-08-05T04:47:57.503Z,1008.81
2022-08-05T04:48:58.858Z,1008.89
2022-08-05T04:50:02.685Z,1008.92
2022-08-05T04:51:03.116Z,1008.86
2022-08-05T04:52:00.518Z,1008.84
2022-08-05T04:52:57.331Z,1008.75
2022-08-05T04:53:57.268Z,1008.77
2022-08-05T04:54:57.926Z,1008.74
2022-08-05T04:56:15.025Z,1008.74
2022-08-05T04:56:59.723Z,1008.75
2022-08-05T04:57:57.120Z,1008.77
2022-08-05T04:58:57.097Z,1008.74
2022-08-05T04:59:57.049Z,1008.79
2022-08-05T05:00:57.028Z,1008.81
2022-08-05T05:02:06.761Z,1008.87
2022-08-05T05:03:02.858Z,1008.88
2022-08-05T05:03:56.912Z,1008.92
2022-08-05T05:05:02.728Z,1008.98
2022-08-05T05:06:39.867Z,1008.91
2022-08-05T05:06:57.601Z,1008.87
2022-08-05T05:08:01.728Z,1008.90
2022-08-05T05:08:56.719Z,1008.90
2022-08-05T05:09:56.714Z,1008.94
2022-08-05T05:10:56.771Z,1008.93
2022-08-05T05:11:59.045Z,1008.92
2022-08-05T05:12:56.569Z,1008.94
2022-08-05T05:13:56.532Z,1008.94
2022-08-05T05:14:56.495Z,1008.88
2022-08-05T05:16:01.914Z,1008.91
2022-08-05T05:16:56.423Z,1008.92
2022-08-05T05:17:57.876Z,1008.93
2022-08-05T05:19:17.808Z,1008.94
2022-08-05T05:19:56.625Z,1008.94
2022-08-05T05:20:56.277Z,1008.92
2022-08-05T05:21:56.253Z,1008.92
2022-08-05T05:22:56.201Z,1008.87
2022-08-05T05:24:03.808Z,1008.86
2022-08-05T05:24:59.934Z,1008.86
2022-08-05T05:25:56.096Z,1008.87
2022-08-05T05:26:56.056Z,1008.88
2022-08-05T05:27:56.328Z,1008.84
2022-08-05T05:28:55.981Z,1008.88
2022-08-05T05:30:04.163Z,1008.90
2022-08-05T05:30:55.906Z,1008.91
2022-08-05T05:31:55.892Z,1008.97
2022-08-05T05:32:55.854Z,1008.99
2022-08-05T05:33:59.169Z,1009.03
2022-08-05T05:34:55.763Z,1009.01
2022-08-05T05:35:55.724Z,1009.02
2022-08-05T05:36:55.689Z,1009.02
2022-08-05T05:37:59.838Z,1009.02
2022-08-05T05:38:55.658Z,1009.01
2022-08-05T05:39:55.602Z,1009.02
2022-08-05T05:40:55.648Z,1009.04
2022-08-05T05:41:55.507Z,1009.05
2022-08-05T05:42:55.474Z,1009.07
2022-08-05T05:43:58.212Z,1009.13
2022-08-05T05:44:59.398Z,1009.17
2022-08-05T05:45:55.370Z,1009.14
2022-08-05T05:46:55.322Z,1009.11
2022-08-05T05:48:06.949Z,1009.11
2022-08-05T05:48:55.258Z,1009.10
2022-08-05T05:49:56.881Z,1009.10
2022-08-05T05:50:55.190Z,1009.12
2022-08-05T05:51:55.148Z,1009.17
2022-08-05T05:52:55.103Z,1009.19
2022-08-05T05:53:58.777Z,1009.19
2022-08-05T05:54:55.039Z,1009.21
2022-08-05T05:56:00.465Z,1009.19
2022-08-05T05:56:54.972Z,1009.19
2022-08-05T05:57:54.921Z,1009.21
2022-08-05T05:58:54.885Z,1009.23
2022-08-05T05:59:54.847Z,1009.23
2022-08-05T06:00:54.812Z,1009.28
2022-08-05T06:01:57.669Z,1009.33
2022-08-05T06:02:54.739Z,1009.31
2022-08-05T06:04:01.763Z,1009.32
2022-08-05T06:04:54.728Z,1009.31
2022-08-05T06:05:55.532Z,1009.29
2022-08-05T06:06:54.594Z,1009.28
2022-08-05T06:08:01.282Z,1009.27
2022-08-05T06:08:54.519Z,1009.25
2022-08-05T06:10:01.677Z,1009.28
2022-08-05T06:10:54.447Z,1009.26
2022-08-05T06:11:59.154Z,1009.26
2022-08-05T06:12:54.374Z,1009.27
2022-08-05T06:13:55.508Z,1009.27
2022-08-05T06:14:54.300Z,1009.22
2022-08-05T06:16:29.029Z,1009.19
2022-08-05T06:16:54.228Z,1009.16
2022-08-05T06:17:54.713Z,1009.18
2022-08-05T06:18:54.154Z,1009.20
2022-08-05T06:19:57.058Z,1009.23
2022-08-05T06:20:54.293Z,1009.26
2022-08-05T06:21:54.043Z,1009.29
2022-08-05T06:22:54.007Z,1009.30
2022-08-05T06:23:53.991Z,1009.30
2022-08-05T06:24:53.934Z,1009.28
2022-08-05T06:26:12.868Z,1009.31
2022-08-05T06:26:53.862Z,1009.34
2022-08-05T06:28:10.932Z,1009.37
2022-08-05T06:28:53.789Z,1009.40
2022-08-05T06:30:04.432Z,1009.43
2022-08-05T06:30:53.727Z,1009.49
2022-08-05T06:31:53.680Z,1009.50
2022-08-05T06:32:53.642Z,1009.45
2022-08-05T06:34:06.913Z,1009.52
2022-08-05T06:34:56.196Z,1009.52
2022-08-05T06:36:07.830Z,1009.60
2022-08-05T06:36:57.823Z,1009.56
2022-08-05T06:37:57.434Z,1009.61
2022-08-05T06:38:53.456Z,1009.62
2022-08-05T06:39:53.385Z,1009.66
2022-08-05T06:40:53.350Z,1009.69
2022-08-05T06:41:53.321Z,1009.73
2022-08-05T06:42:53.291Z,1009.71
2022-08-05T06:44:00.347Z,1009.71
2022-08-05T06:44:53.899Z,1009.67
2022-08-05T06:46:03.914Z,1009.69
2022-08-05T06:46:54.337Z,1009.73
2022-08-05T06:48:36.080Z,1009.72
2022-08-05T06:48:55.703Z,1009.73
2022-08-05T06:50:01.458Z,1009.71
2022-08-05T06:50:52.984Z,1009.71
2022-08-05T06:51:52.954Z,1009.75
2022-08-05T06:52:58.811Z,1009.76
2022-08-05T06:53:53.648Z,1009.74
2022-08-05T06:54:53.403Z,1009.73
2022-08-05T06:55:52.800Z,1009.68
2022-08-05T06:56:54.380Z,1009.71
2022-08-05T06:58:02.768Z,1009.68
2022-08-05T06:58:52.690Z,1009.70
2022-08-05T06:59:57.894Z,1009.69
2022-08-05T07:00:52.676Z,1009.73
2022-08-05T07:01:53.044Z,1009.72
2022-08-05T07:02:53.478Z,1009.75
2022-08-05T07:03:52.505Z,1009.75
2022-08-05T07:04:52.469Z,1009.74
2022-08-05T07:05:52.431Z,1009.75
2022-08-05T07:06:52.400Z,1009.81
2022-08-05T07:07:52.372Z,1009.79
2022-08-05T07:08:54.987Z,1009.82
2022-08-05T07:09:55.408Z,1009.89
2022-08-05T07:10:53.809Z,1009.84
2022-08-05T07:11:52.217Z,1009.86
2022-08-05T07:12:52.183Z,1009.89
2022-08-05T07:13:57.597Z,1009.89
2022-08-05T07:14:54.057Z,1009.90
2022-08-05T07:16:01.680Z,1009.92
2022-08-05T07:18:01.493Z,1009.94
2022-08-05T07:18:07.266Z,1009.97
2022-08-05T07:18:51.957Z,1009.95
2022-08-05T07:20:51.886Z,1010.00
2022-08-05T07:21:59.802Z,1010.06
2022-08-05T07:24:31.551Z,1010.13
2022-08-05T07:25:55.260Z,1010.14
2022-08-05T07:26:31.453Z,1010.15
2022-08-05T07:27:57.514Z,1010.23
2022-08-05T07:28:31.380Z,1010.22
2022-08-05T07:30:24.716Z,1010.21
2022-08-05T07:30:32.398Z,1010.23
2022-08-05T07:31:40.747Z,1010.22
2022-08-05T07:32:31.256Z,1010.24
2022-08-05T07:33:37.033Z,1010.25
2022-08-05T07:34:31.174Z,1010.25
2022-08-05T07:36:03.190Z,1010.29
2022-08-05T07:36:31.928Z,1010.31
2022-08-05T07:37:37.549Z,1010.29
2022-08-05T07:38:34.099Z,1010.31
2022-08-05T07:40:26.359Z,1010.31
2022-08-05T07:40:32.928Z,1010.35
2022-08-05T07:42:13.860Z,1010.36
2022-08-05T07:42:31.725Z,1010.38
2022-08-05T07:43:30.831Z,1010.37
2022-08-05T07:44:30.789Z,1010.42
2022-08-05T07:45:56.334Z,1010.40
2022-08-05T07:46:30.841Z,1010.40
2022-08-05T07:47:42.007Z,1010.40
2022-08-05T07:49:02.069Z,1010.40
2022-08-05T07:49:30.605Z,1010.40
2022-08-05T07:50:32.489Z,1010.45
2022-08-05T07:51:36.968Z,1010.42
2022-08-05T07:52:30.508Z,1010.45
2022-08-05T07:53:36.997Z,1010.44
2022-08-05T07:54:33.643Z,1010.48
2022-08-05T07:56:04.969Z,1010.48
2022-08-05T07:56:39.223Z,1010.53
2022-08-05T07:57:51.360Z,1010.60
2022-08-05T07:58:54.679Z,1010.59
2022-08-05T07:59:38.232Z,1010.64
2022-08-05T08:00:30.206Z,1010.64
2022-08-05T08:01:30.215Z,1010.66
2022-08-05T08:02:30.720Z,1010.66
2022-08-05T08:03:44.645Z,1010.70
2022-08-05T08:04:37.873Z,1010.77
2022-08-05T08:05:30.019Z,1010.82
2022-08-05T08:06:29.981Z,1010.84
2022-08-05T08:07:39.404Z,1010.82
2022-08-05T08:08:29.913Z,1010.88
2022-08-05T08:09:29.873Z,1010.85
2022-08-05T08:10:30.317Z,1010.92
2022-08-05T08:11:47.179Z,1010.88
2022-08-05T08:12:48.750Z,1010.93
2022-08-05T08:13:29.745Z,1010.89
2022-08-05T08:14:29.684Z,1010.93
2022-08-05T08:16:35.618Z,1010.91
2022-08-05T08:16:35.842Z,1010.94
2022-08-05T08:17:30.283Z,1010.98
2022-08-05T08:18:29.537Z,1011.01
2022-08-05T08:20:22.791Z,1011.01
2022-08-05T08:20:43.222Z,1010.99
2022-08-05T08:21:29.427Z,1011.01
2022-08-05T08:22:29.400Z,1011.01
2022-08-05T08:24:01.280Z,1011.04
2022-08-05T08:24:41.482Z,1011.06
2022-08-05T08:25:58.941Z,1011.04
2022-08-05T08:26:30.021Z,1011.06
2022-08-05T08:27:40.304Z,1011.08
2022-08-05T08:28:37.244Z,1011.09
2022-08-05T08:30:05.768Z,1011.12
2022-08-05T08:30:36.539Z,1011.11
2022-08-05T08:31:29.056Z,1011.13
2022-08-05T08:32:29.018Z,1011.12
2022-08-05T08:33:28.993Z,1011.15
2022-08-05T08:34:30.750Z,1011.18
2022-08-05T08:35:28.911Z,1011.20
2022-08-05T08:36:38.691Z,1011.26
2022-08-05T08:37:28.922Z,1011.23
2022-08-05T08:38:36.114Z,1011.24
2022-08-05T08:39:28.843Z,1011.24
2022-08-05T08:40:28.720Z,1011.28
2022-08-05T08:41:51.225Z,1011.26
2022-08-05T08:42:34.608Z,1011.22
2022-08-05T08:45:21.319Z,1011.32
2022-08-05T08:45:23.563Z,1011.28
2022-08-05T08:45:30.399Z,1011.28
2022-08-05T08:46:28.503Z,1011.30
2022-08-05T08:48:05.651Z,1011.28
2022-08-05T08:49:03.277Z,1011.28
2022-08-05T08:50:07.896Z,1011.28
2022-08-05T08:50:52.859Z,1011.26
2022-08-05T08:52:04.126Z,1011.27
2022-08-05T08:52:28.817Z,1011.34
2022-08-05T08:53:28.886Z,1011.39
2022-08-05T08:54:28.208Z,1011.37
2022-08-05T08:56:03.202Z,1011.38
2022-08-05T08:56:28.131Z,1011.41
2022-08-05T08:57:42.114Z,1011.45
2022-08-05T08:58:37.618Z,1011.43
2022-08-05T08:59:33.613Z,1011.45
2022-08-05T09:00:28.017Z,1011.50
2022-08-05T09:01:27.965Z,1011.55
2022-08-05T09:02:27.909Z,1011.55
2022-08-05T09:03:27.889Z,1011.58
2022-08-05T09:04:30.102Z,1011.56
2022-08-05T09:05:38.965Z,1011.64
2022-08-05T09:06:27.997Z,1011.65
2022-08-05T09:07:28.369Z,1011.57
2022-08-05T09:08:30.268Z,1011.64
2022-08-05T09:09:34.801Z,1011.66
2022-08-05T09:10:29.539Z,1011.65
2022-08-05T09:11:51.345Z,1011.63
2022-08-05T09:12:30.080Z,1011.67
2022-08-05T09:13:31.965Z,1011.67
2022-08-05T09:14:57.192Z,1011.71
2022-08-05T09:15:27.434Z,1011.71
2022-08-05T09:16:27.422Z,1011.73
2022-08-05T09:17:42.969Z,1011.73
2022-08-05T09:18:27.321Z,1011.74
2022-08-05T09:19:27.909Z,1011.73
2022-08-05T09:20:37.435Z,1011.75
2022-08-05T09:22:23.490Z,1011.78
2022-08-05T09:22:31.963Z,1011.77
2022-08-05T09:23:37.300Z,1011.79
2022-08-05T09:24:27.108Z,1011.80
2022-08-05T09:26:02.277Z,1011.80
2022-08-05T09:26:30.198Z,1011.82
2022-08-05T09:42:33.062Z,1011.93
2022-08-05T09:43:40.710Z,1011.98
2022-08-05T09:44:32.562Z,1011.99
2022-08-05T09:46:07.201Z,1012.03
2022-08-05T09:46:32.475Z,1012.04
2022-08-05T09:47:48.011Z,1012.05
2022-08-05T09:48:32.412Z,1012.06
2022-08-05T09:49:40.416Z,1012.08
2022-08-05T09:50:38.690Z,1012.13
2022-08-05T09:51:32.309Z,1012.16
2022-08-05T09:52:32.258Z,1012.17
2022-08-05T09:53:53.731Z,1012.17
2022-08-05T09:54:32.180Z,1012.20
2022-08-05T09:55:56.262Z,1012.22
2022-08-05T09:56:32.101Z,1012.23
2022-08-05T09:57:35.178Z,1012.26
2022-08-05T09:58:32.039Z,1012.25
2022-08-05T09:59:35.077Z,1012.27
2022-08-05T10:00:31.964Z,1012.29
2022-08-05T10:01:32.987Z,1012.28
2022-08-05T10:02:31.934Z,1012.38
2022-08-05T10:03:56.846Z,1012.40
2022-08-05T10:04:31.865Z,1012.43
2022-08-05T10:05:32.672Z,1012.47
2022-08-05T10:06:31.739Z,1012.50
2022-08-05T10:08:10.391Z,1012.50
2022-08-05T10:08:35.823Z,1012.55
2022-08-05T10:09:45.067Z,1012.54
2022-08-05T10:10:32.394Z,1012.56
2022-08-05T10:11:35.334Z,1012.63
2022-08-05T10:12:33.806Z,1012.64
2022-08-05T10:13:47.117Z,1012.68
2022-08-05T10:14:32.171Z,1012.69
2022-08-05T10:15:34.413Z,1012.68
2022-08-05T10:16:32.127Z,1012.65
2022-08-05T10:17:38.119Z,1012.68
2022-08-05T10:18:31.311Z,1012.70
2022-08-05T10:19:31.853Z,1012.73
2022-08-05T10:20:31.238Z,1012.72
2022-08-05T10:21:35.387Z,1012.78
2022-08-05T10:22:35.121Z,1012.82
2022-08-05T10:23:56.011Z,1012.85
2022-08-05T10:24:31.128Z,1012.91
2022-08-05T10:25:31.064Z,1012.93
2022-08-05T10:26:32.682Z,1013.00
2022-08-05T10:28:13.636Z,1013.34
2022-08-05T10:28:31.011Z,1013.18
2022-08-05T10:30:41.897Z,1013.34
2022-08-05T10:32:49.068Z,1013.36
2022-08-05T10:32:53.301Z,1013.25
2022-08-05T10:33:01.487Z,1013.16
2022-08-05T10:33:30.790Z,1013.15
2022-08-05T10:34:31.208Z,1013.12
2022-08-05T10:35:33.696Z,1013.19
2022-08-05T10:36:30.702Z,1013.30
2022-08-05T10:37:40.147Z,1013.31
2022-08-05T10:38:33.013Z,1013.38
2022-08-05T10:39:59.153Z,1013.74
2022-08-05T10:40:30.632Z,1013.54
2022-08-05T10:41:46.590Z,1013.40
2022-08-05T10:42:32.436Z,1013.36
2022-08-05T10:43:30.896Z,1013.33
2022-08-05T10:44:30.425Z,1013.29
2022-08-05T10:45:39.765Z,1013.25
2022-08-05T10:46:30.369Z,1013.42
2022-08-05T10:47:31.146Z,1013.38
2022-08-05T10:48:35.105Z,1013.45
2022-08-05T10:49:33.386Z,1014.09
2022-08-05T10:50:36.334Z,1013.42
2022-08-05T10:51:30.191Z,1013.44
2022-08-05T10:52:30.162Z,1013.59
2022-08-05T10:53:30.141Z,1013.52
2022-08-05T10:54:33.689Z,1013.63
2022-08-05T10:55:30.063Z,1013.33
2022-08-05T10:56:30.038Z,1013.64
2022-08-05T10:57:32.378Z,1014.20
2022-08-05T10:58:36.201Z,1014.17
2022-08-05T11:00:02.415Z,1013.60
2022-08-05T11:00:29.928Z,1013.48
2022-08-05T11:02:03.779Z,1013.40
2022-08-05T11:02:38.361Z,1013.35
2022-08-05T11:03:29.844Z,1013.42
2022-08-05T11:04:30.931Z,1013.45
2022-08-05T11:05:31.663Z,1013.80
2022-08-05T11:06:30.746Z,1013.48
2022-08-05T11:07:33.278Z,1013.51
2022-08-05T11:08:37.035Z,1013.51
2022-08-05T11:09:39.475Z,1013.57
2022-08-05T11:10:29.596Z,1013.58
2022-08-05T11:11:33.023Z,1013.68
2022-08-05T11:12:29.516Z,1014.04
2022-08-05T11:13:29.487Z,1013.74
2022-08-05T11:14:49.392Z,1013.78
2022-08-05T11:15:59.138Z,1013.75
2022-08-05T11:16:33.937Z,1013.66
2022-08-05T11:18:00.348Z,1013.65
2022-08-05T11:18:30.069Z,1013.71
2022-08-05T11:20:10.286Z,1013.80
2022-08-05T11:20:29.262Z,1013.81
2022-08-05T11:21:29.244Z,1013.77
2022-08-05T11:22:29.197Z,1013.89
2022-08-05T11:23:33.501Z,1013.96
2022-08-05T11:24:29.985Z,1013.69
2022-08-05T11:26:05.499Z,1013.68
2022-08-05T11:26:33.007Z,1013.68
2022-08-05T11:27:29.043Z,1013.63
2022-08-05T11:28:29.001Z,1013.64
2022-08-05T11:29:28.969Z,1013.64
2022-08-05T11:30:28.939Z,1013.66
2022-08-05T11:31:57.202Z,1013.62
2022-08-05T11:32:28.873Z,1013.75
2022-08-05T11:33:34.527Z,1013.61
2022-08-05T11:34:28.810Z,1014.32
2022-08-05T11:35:28.773Z,1013.83
2022-08-05T11:36:34.356Z,1014.27
2022-08-05T11:38:36.952Z,1013.98
2022-08-05T11:38:37.192Z,1014.39
2022-08-05T11:39:28.715Z,1013.74
2022-08-05T11:40:28.618Z,1013.99
2022-08-05T11:41:54.730Z,1013.64
2022-08-05T11:42:28.554Z,1014.33
2022-08-05T11:44:00.722Z,1014.08
2022-08-05T11:44:53.048Z,1014.20
2022-08-05T11:46:27.562Z,1014.26
2022-08-05T11:46:32.691Z,1013.60
2022-08-05T11:47:48.474Z,1013.68
2022-08-05T11:48:28.381Z,1013.65
2022-08-05T11:49:28.336Z,1013.68
2022-08-05T11:50:28.311Z,1013.64
2022-08-05T11:51:43.616Z,1013.59
2022-08-05T11:52:29.330Z,1013.57
2022-08-05T11:53:28.203Z,1013.78
2022-08-05T11:54:32.794Z,1013.67
2022-08-05T11:55:32.008Z,1013.67
2022-08-05T11:56:40.616Z,1013.63
2022-08-05T11:57:28.163Z,1013.64
2022-08-05T11:58:28.057Z,1013.71
2022-08-05T11:59:28.014Z,1013.69
2022-08-05T12:00:28.839Z,1013.64
2022-08-05T12:01:27.954Z,1013.57
2022-08-05T12:02:31.566Z,1013.57
2022-08-05T12:03:31.678Z,1013.60
2022-08-05T12:04:27.860Z,1013.58
2022-08-05T12:05:36.393Z,1013.55
2022-08-05T12:06:27.804Z,1013.53
2022-08-05T12:08:10.228Z,1013.57
2022-08-05T12:08:27.749Z,1014.08
2022-08-05T12:09:52.486Z,1014.06
2022-08-05T12:10:43.838Z,1013.85
2022-08-05T12:11:28.239Z,1013.97
2022-08-05T12:12:27.616Z,1013.69
2022-08-05T12:13:47.658Z,1014.08
2022-08-05T12:14:27.539Z,1014.07
2022-08-05T12:15:37.962Z,1013.95
2022-08-05T12:16:27.472Z,1013.53
2022-08-05T12:18:03.077Z,1013.56
2022-08-05T12:18:30.905Z,1013.50
2022-08-05T12:20:26.549Z,1013.48
2022-08-05T12:20:33.110Z,1013.50
2022-08-05T12:21:29.872Z,1013.51
2022-08-05T12:22:27.282Z,1014.14